TimeCDT,TemperatureF,Dew PointF,Humidity,Sea Level PressureIn,VisibilityMPH,Wind Direction,Wind SpeedMPH,Gust SpeedMPH,PrecipitationIn,Events,Conditions,WindDirDegrees,DateUTC
12:53 AM,48.0,45.0,89,29.91,5.0,Calm,Calm,-,N/A,,Clear,0,2012-10-03 05:53:00
1:40 AM,44.6,42.8,93,29.92,1.8,Calm,Calm,-,N/A,,Clear,0,2012-10-03 06:40:00
1:53 AM,45.0,44.1,97,29.92,1.8,Calm,Calm,-,N/A,,Clear,0,2012-10-03 06:53:00
1:59 AM,44.6,42.8,93,29.93,3.0,Calm,Calm,-,N/A,,Clear,0,2012-10-03 06:59:00
2:28 AM,42.8,42.8,100,29.93,1.8,Calm,Calm,-,N/A,,Clear,0,2012-10-03 07:28:00
2:36 AM,42.8,41.0,93,29.93,0.5,Calm,Calm,-,N/A,Fog,Fog,0,2012-10-03 07:36:00
2:42 AM,44.6,42.8,93,29.93,1.0,Calm,Calm,-,N/A,,Clear,0,2012-10-03 07:42:00
2:47 AM,44.6,42.8,93,29.93,4.0,Calm,Calm,-,N/A,,Clear,0,2012-10-03 07:47:00
2:53 AM,45.0,43.0,93,29.93,10.0,Calm,Calm,-,N/A,,Clear,0,2012-10-03 07:53:00
3:53 AM,45.0,42.1,90,29.93,10.0,Calm,Calm,-,N/A,,Clear,0,2012-10-03 08:53:00
3:56 AM,44.6,42.8,93,29.93,2.0,Calm,Calm,-,N/A,,Partly Cloudy,0,2012-10-03 08:56:00
3:58 AM,42.8,42.8,100,29.93,1.0,Calm,Calm,-,N/A,,Mist,0,2012-10-03 08:58:00
4:01 AM,42.8,41.0,93,29.93,0.5,Calm,Calm,-,N/A,Fog,Fog,0,2012-10-03 09:01:00
4:20 AM,42.8,41.0,93,29.93,1.0,Calm,Calm,-,N/A,,Mist,0,2012-10-03 09:20:00
4:26 AM,42.8,41.0,93,29.93,3.0,Calm,Calm,-,N/A,,Mostly Cloudy,0,2012-10-03 09:26:00
4:53 AM,44.1,39.9,85,29.93,10.0,Calm,Calm,-,N/A,,Partly Cloudy,0,2012-10-03 09:53:00
5:53 AM,42.1,39.9,92,29.95,10.0,Calm,Calm,-,N/A,,Clear,0,2012-10-03 10:53:00
6:53 AM,41.0,39.0,93,29.95,10.0,Calm,Calm,-,N/A,,Clear,0,2012-10-03 11:53:00
7:53 AM,42.1,41.0,96,29.96,10.0,Calm,Calm,-,N/A,,Clear,0,2012-10-03 12:53:00
8:53 AM,50.0,46.0,86,29.97,10.0,Calm,Calm,-,N/A,,Clear,0,2012-10-03 13:53:00
9:53 AM,61.0,48.9,64,29.96,10.0,Calm,Calm,-,N/A,,Clear,0,2012-10-03 14:53:00
10:53 AM,71.1,44.1,38,29.95,10.0,South,9.2,-,N/A,,Clear,190,2012-10-03 15:53:00
11:53 AM,75.0,41.0,29,29.93,10.0,SSW,11.5,18.4,N/A,,Clear,210,2012-10-03 16:53:00
12:53 PM,77.0,39.9,26,29.92,10.0,South,12.7,20.7,N/A,,Clear,180,2012-10-03 17:53:00
1:53 PM,78.1,37.0,23,29.89,10.0,South,11.5,20.7,N/A,,Clear,170,2012-10-03 18:53:00
2:53 PM,79.0,37.0,22,29.87,10.0,South,10.4,21.9,N/A,,Clear,190,2012-10-03 19:53:00
3:53 PM,79.0,37.9,23,29.86,10.0,South,12.7,-,N/A,,Clear,190,2012-10-03 20:53:00
4:53 PM,79.0,39.0,24,29.86,10.0,South,13.8,-,N/A,,Clear,180,2012-10-03 21:53:00
5:53 PM,78.1,41.0,27,29.86,10.0,South,13.8,20.7,N/A,,Clear,170,2012-10-03 22:53:00
6:53 PM,73.0,43.0,34,29.88,10.0,SSE,9.2,-,N/A,,Clear,150,2012-10-03 23:53:00
7:53 PM,66.2,44.6,46,29.89,10.0,SE,6.9,-,N/A,,Clear,140,2012-10-04 00:53:00
8:53 PM,64.9,46.0,50,29.90,10.0,SSE,6.9,-,N/A,,Clear,150,2012-10-04 01:53:00
9:53 PM,66.9,48.0,51,29.90,10.0,SSE,6.9,-,N/A,,Clear,160,2012-10-04 02:53:00
10:53 PM,66.9,48.9,52,29.92,10.0,SSE,4.6,-,N/A,,Clear,160,2012-10-04 03:53:00
11:53 PM,64.9,48.9,56,29.94,10.0,Calm,Calm,-,N/A,,Clear,0,2012-10-04 04:53:00